createdAt,value
2022-11-28T00:00:31.137Z,100658.53
2022-11-28T00:01:05.262Z,100660.16
2022-11-28T00:01:41.290Z,100659.47
2022-11-28T00:02:13.283Z,100655.44
2022-11-28T00:02:45.391Z,100656.72
2022-11-28T00:03:17.358Z,100658.16
2022-11-28T00:03:49.565Z,100653.78
2022-11-28T00:04:21.586Z,100653.59
2022-11-28T00:04:53.570Z,100660.94
2022-11-28T00:05:25.677Z,100647.50
2022-11-28T00:05:57.686Z,100651.88
2022-11-28T00:06:30.285Z,100656.34
2022-11-28T00:07:02.435Z,100647.66
2022-11-28T00:07:34.664Z,100657.16
2022-11-28T00:08:06.778Z,100653.75
2022-11-28T00:08:38.605Z,100657.66
2022-11-28T00:09:10.500Z,100655.00
2022-11-28T00:09:42.334Z,100657.13
2022-11-28T00:10:14.195Z,100659.91
2022-11-28T00:10:46.384Z,100655.84
2022-11-28T00:11:18.850Z,100648.84
2022-11-28T00:11:51.336Z,100656.53
2022-11-28T00:12:24.078Z,100643.94
2022-11-28T00:12:55.917Z,100655.59
2022-11-28T00:13:27.735Z,100648.44
2022-11-28T00:13:59.787Z,100657.56
2022-11-28T00:14:31.746Z,100658.34
2022-11-28T00:15:05.093Z,100650.34
2022-11-28T00:15:36.999Z,100651.16
2022-11-28T00:16:13.042Z,100651.78
2022-11-28T00:16:46.047Z,100646.97
2022-11-28T00:17:18.189Z,100652.69
2022-11-28T00:17:50.041Z,100653.19
2022-11-28T00:18:21.959Z,100657.25
2022-11-28T00:18:55.212Z,100654.97
2022-11-28T00:19:27.027Z,100654.41
2022-11-28T00:19:59.169Z,100658.78
2022-11-28T00:20:32.518Z,100653.09
2022-11-28T00:21:10.807Z,100656.53
2022-11-28T00:21:42.827Z,100649.75
2022-11-28T00:22:14.695Z,100656.19
2022-11-28T00:22:46.965Z,100657.75
2022-11-28T00:23:18.869Z,100661.63
2022-11-28T00:23:51.086Z,100656.75
2022-11-28T00:24:22.935Z,100656.75
2022-11-28T00:24:55.102Z,100661.25
2022-11-28T00:25:26.939Z,100668.38
2022-11-28T00:26:00.681Z,100654.81
2022-11-28T00:26:39.330Z,100662.34
2022-11-28T00:27:11.209Z,100664.97
2022-11-28T00:27:43.065Z,100666.31
2022-11-28T00:28:15.206Z,100661.88
2022-11-28T00:28:47.731Z,100660.87
2022-11-28T00:29:19.596Z,100665.19
2022-11-28T00:29:51.409Z,100667.47
2022-11-28T00:30:23.297Z,100659.69
2022-11-28T00:30:55.113Z,100658.25
2022-11-28T00:31:30.513Z,100665.88
2022-11-28T00:32:03.515Z,100664.44
2022-11-28T00:32:35.412Z,100667.41
2022-11-28T00:33:07.228Z,100670.34
2022-11-28T00:33:39.393Z,100663.53
2022-11-28T00:34:13.871Z,100659.38
2022-11-28T00:34:45.822Z,100665.81
2022-11-28T00:35:17.676Z,100665.47
2022-11-28T00:35:49.907Z,100664.66
2022-11-28T00:36:22.284Z,100662.41
2022-11-28T00:36:54.150Z,100666.69
2022-11-28T00:37:26.074Z,100669.28
2022-11-28T00:37:57.972Z,100664.59
2022-11-28T00:38:30.299Z,100665.88
2022-11-28T00:39:02.460Z,100668.63
2022-11-28T00:39:34.396Z,100666.19
2022-11-28T00:40:07.274Z,100676.44
2022-11-28T00:40:39.204Z,100673.38
2022-11-28T00:41:17.171Z,100668.38
2022-11-28T00:41:49.190Z,100666.47
2022-11-28T00:42:22.283Z,100666.84
2022-11-28T00:42:54.174Z,100674.25
2022-11-28T00:43:26.041Z,100674.75
2022-11-28T00:43:58.125Z,100672.19
2022-11-28T00:44:30.239Z,100675.81
2022-11-28T00:45:02.094Z,100673.91
2022-11-28T00:45:34.041Z,100669.25
2022-11-28T00:46:06.682Z,100673.63
2022-11-28T00:46:38.660Z,100671.66
2022-11-28T00:47:10.508Z,100673.31
2022-11-28T00:47:42.356Z,100677.72
2022-11-28T00:48:14.191Z,100672.22
2022-11-28T00:48:46.657Z,100673.69
2022-11-28T00:49:18.559Z,100672.38
2022-11-28T00:49:50.660Z,100672.94
2022-11-28T00:50:22.559Z,100676.84
2022-11-28T00:50:55.379Z,100671.19
2022-11-28T00:51:32.930Z,100671.34
2022-11-28T00:52:04.873Z,100677.34
2022-11-28T00:52:36.699Z,100670.69
2022-11-28T00:53:08.534Z,100672.97
2022-11-28T00:53:42.596Z,100677.03
2022-11-28T00:54:14.482Z,100673.16
2022-11-28T00:54:46.329Z,100669.44
2022-11-28T00:55:18.578Z,100665.59
2022-11-28T00:55:50.507Z,100670.59
2022-11-28T00:56:28.353Z,100673.31
2022-11-28T00:57:00.178Z,100678.00
2022-11-28T00:57:32.043Z,100673.59
2022-11-28T00:58:04.004Z,100669.88
2022-11-28T00:58:36.794Z,100676.53
2022-11-28T00:59:08.745Z,100678.59
2022-11-28T00:59:40.838Z,100674.84
2022-11-28T01:00:13.234Z,100666.75
2022-11-28T01:00:45.408Z,100672.00
2022-11-28T01:01:25.014Z,100674.53
2022-11-28T01:01:57.114Z,100676.56
2022-11-28T01:02:29.122Z,100670.75
2022-11-28T01:03:01.094Z,100670.97
2022-11-28T01:03:32.958Z,100675.31
2022-11-28T01:04:09.065Z,100673.69
2022-11-28T01:04:41.219Z,100670.31
2022-11-28T01:05:13.279Z,100667.72
2022-11-28T01:05:45.462Z,100666.06
2022-11-28T01:06:26.697Z,100666.91
2022-11-28T01:06:58.555Z,100673.25
2022-11-28T01:07:33.250Z,100670.97
2022-11-28T01:08:05.131Z,100671.47
2022-11-28T01:08:37.755Z,100668.03
2022-11-28T01:09:13.487Z,100672.22
2022-11-28T01:09:45.484Z,100665.78
2022-11-28T01:10:17.746Z,100665.84
2022-11-28T01:10:49.907Z,100673.78
2022-11-28T01:11:22.553Z,100665.97
2022-11-28T01:11:54.962Z,100665.97
2022-11-28T01:12:26.834Z,100667.06
2022-11-28T01:12:58.701Z,100662.09
2022-11-28T01:13:30.769Z,100659.66
2022-11-28T01:14:03.260Z,100663.69
2022-11-28T01:14:35.167Z,100666.38
2022-11-28T01:15:08.875Z,100665.56
2022-11-28T01:15:42.394Z,100664.13
2022-11-28T01:16:15.475Z,100663.69
2022-11-28T01:16:47.777Z,100660.87
2022-11-28T01:17:19.701Z,100663.00
2022-11-28T01:17:51.526Z,100660.94
2022-11-28T01:18:23.383Z,100665.62
2022-11-28T01:18:55.289Z,100658.25
2022-11-28T01:19:27.243Z,100666.66
2022-11-28T01:19:59.136Z,100654.34
2022-11-28T01:20:31.115Z,100658.72
2022-11-28T01:21:03.586Z,100657.75
2022-11-28T01:21:35.971Z,100660.84
2022-11-28T01:22:07.839Z,100663.44
2022-11-28T01:22:39.725Z,100658.09
2022-11-28T01:23:11.636Z,100663.28
2022-11-28T01:23:43.600Z,100660.75
2022-11-28T01:24:16.476Z,100651.19
2022-11-28T01:24:48.345Z,100656.69
2022-11-28T01:25:20.408Z,100657.37
2022-11-28T01:25:52.297Z,100658.81
2022-11-28T01:26:27.069Z,100665.62
2022-11-28T01:26:59.294Z,100660.09
2022-11-28T01:27:31.506Z,100653.59
2022-11-28T01:28:03.788Z,100660.56
2022-11-28T01:28:36.232Z,100660.75
2022-11-28T01:29:08.374Z,100663.66
2022-11-28T01:29:40.211Z,100664.00
2022-11-28T01:30:13.106Z,100660.94
2022-11-28T01:30:44.934Z,100663.41
2022-11-28T01:31:20.585Z,100654.75
2022-11-28T01:31:52.643Z,100662.03
2022-11-28T01:32:24.891Z,100665.28
2022-11-28T01:32:56.715Z,100662.69
2022-11-28T01:33:28.630Z,100662.69
2022-11-28T01:34:00.557Z,100667.41
2022-11-28T01:34:32.392Z,100661.38
2022-11-28T01:35:04.650Z,100663.16
2022-11-28T01:35:36.510Z,100663.81
2022-11-28T01:36:10.480Z,100660.09
2022-11-28T01:36:42.489Z,100656.03
2022-11-28T01:37:14.291Z,100659.28
2022-11-28T01:37:46.441Z,100661.72
2022-11-28T01:38:18.299Z,100656.22
2022-11-28T01:38:50.872Z,100663.19
2022-11-28T01:39:22.731Z,100658.78
2022-11-28T01:39:54.614Z,100656.50
2022-11-28T01:40:26.567Z,100663.63
2022-11-28T01:40:58.676Z,100660.41
2022-11-28T01:41:30.672Z,100658.50
2022-11-28T01:42:02.575Z,100655.56
2022-11-28T01:42:34.495Z,100656.91
2022-11-28T01:43:06.645Z,100659.97
2022-11-28T01:43:57.432Z,100650.44
2022-11-28T01:44:29.906Z,100652.66
2022-11-28T01:45:10.621Z,100655.41
2022-11-28T01:45:42.578Z,100650.37
2022-11-28T01:46:14.506Z,100653.94
2022-11-28T01:46:46.481Z,100651.03
2022-11-28T01:47:23.214Z,100648.44
2022-11-28T01:48:00.305Z,100649.72
2022-11-28T01:48:42.492Z,100647.47
2022-11-28T01:49:19.376Z,100646.72
2022-11-28T01:49:52.951Z,100641.00
2022-11-28T01:50:25.541Z,100642.66
2022-11-28T01:51:02.150Z,100641.63
2022-11-28T01:51:35.113Z,100638.22
2022-11-28T01:52:13.451Z,100643.94
2022-11-28T01:52:51.376Z,100642.59
2022-11-28T01:53:25.753Z,100642.44
2022-11-28T01:53:59.158Z,100638.56
2022-11-28T01:54:33.250Z,100634.66
2022-11-28T01:55:07.153Z,100633.03
2022-11-28T01:56:17.629Z,100636.63
2022-11-28T01:56:56.957Z,100636.78
2022-11-28T01:57:29.581Z,100642.28
2022-11-28T01:58:01.737Z,100634.88
2022-11-28T01:58:36.567Z,100629.31
2022-11-28T01:59:11.719Z,100625.41
2022-11-28T01:59:49.141Z,100621.00
2022-11-28T02:00:22.277Z,100626.00
2022-11-28T02:00:54.739Z,100631.03
2022-11-28T02:01:27.261Z,100626.81
2022-11-28T02:01:59.651Z,100623.75
2022-11-28T02:02:38.713Z,100619.87
2022-11-28T02:03:16.143Z,100627.97
2022-11-28T02:03:50.369Z,100620.88
2022-11-28T02:04:25.819Z,100622.53
2022-11-28T02:04:58.797Z,100626.53
2022-11-28T02:05:31.019Z,100615.69
2022-11-28T02:06:03.059Z,100617.28
2022-11-28T02:06:35.882Z,100615.34
2022-11-28T02:07:08.289Z,100617.63
2022-11-28T02:07:40.809Z,100616.13
2022-11-28T02:08:12.812Z,100619.50
2022-11-28T02:08:44.699Z,100607.53
2022-11-28T02:09:16.943Z,100611.94
2022-11-28T02:09:48.727Z,100606.56
2022-11-28T02:10:32.411Z,100610.34
2022-11-28T02:11:22.672Z,100614.88
2022-11-28T02:12:11.645Z,100610.16
2022-11-28T02:13:02.611Z,100608.38
2022-11-28T02:13:59.902Z,100614.22
2022-11-28T02:14:34.489Z,100624.91
2022-11-28T02:15:14.756Z,100622.47
2022-11-28T02:16:17.985Z,100618.94
2022-11-28T02:17:04.694Z,100614.06
2022-11-28T02:17:57.741Z,100615.34
2022-11-28T02:18:46.108Z,100620.06
2022-11-28T02:19:51.775Z,100616.47
2022-11-28T02:20:41.914Z,100611.50
2022-11-28T02:21:18.436Z,100604.50
2022-11-28T02:22:14.077Z,100615.22
2022-11-28T02:23:10.342Z,100609.56
2022-11-28T02:24:07.415Z,100613.53
2022-11-28T02:24:54.032Z,100614.34
2022-11-28T02:25:37.068Z,100608.03
2022-11-28T02:26:33.442Z,100614.56
2022-11-28T02:27:30.435Z,100602.38
2022-11-28T02:28:14.419Z,100603.34
2022-11-28T02:29:18.570Z,100602.69
2022-11-28T02:30:06.547Z,100603.97
2022-11-28T02:31:12.522Z,100608.09
2022-11-28T02:31:53.396Z,100596.09
2022-11-28T02:33:03.527Z,100606.78
2022-11-28T02:34:08.000Z,100602.34
2022-11-28T02:35:06.435Z,100604.94
2022-11-28T02:35:53.007Z,100601.34
2022-11-28T02:36:34.149Z,100599.22
2022-11-28T02:37:11.469Z,100600.38
2022-11-28T02:37:55.133Z,100600.38
2022-11-28T02:38:32.731Z,100599.22
2022-11-28T02:39:14.578Z,100596.31
2022-11-28T02:40:08.025Z,100597.50
2022-11-28T02:40:58.780Z,100596.84
2022-11-28T02:41:41.055Z,100599.13
2022-11-28T02:42:22.415Z,100593.31
2022-11-28T02:43:15.307Z,100589.41
2022-11-28T02:43:53.156Z,100594.19
2022-11-28T02:44:55.616Z,100597.75
2022-11-28T02:46:06.606Z,100591.41
2022-11-28T02:46:47.436Z,100595.47
2022-11-28T02:47:27.264Z,100591.25
2022-11-28T02:48:08.059Z,100595.03
2022-11-28T02:49:19.320Z,100599.09
2022-11-28T02:50:02.233Z,100598.25
2022-11-28T02:50:42.041Z,100598.75
2022-11-28T02:51:31.514Z,100597.00
2022-11-28T02:52:28.754Z,100589.72
2022-11-28T02:53:14.849Z,100593.78
2022-11-28T02:53:48.330Z,100596.19
2022-11-28T02:54:21.780Z,100588.25
2022-11-28T02:54:55.741Z,100582.87
2022-11-28T02:55:27.882Z,100584.34
2022-11-28T02:56:00.392Z,100587.72
2022-11-28T02:56:32.257Z,100583.97
2022-11-28T02:57:04.296Z,100579.31
2022-11-28T02:57:41.762Z,100578.34
2022-11-28T02:58:13.625Z,100586.78
2022-11-28T02:58:45.466Z,100586.16
2022-11-28T02:59:38.846Z,100578.97
2022-11-28T03:00:22.984Z,100583.81
2022-11-28T03:00:55.526Z,100584.25
2022-11-28T03:01:35.201Z,100587.69
2022-11-28T03:02:18.598Z,100581.72
2022-11-28T03:03:04.164Z,100587.88
2022-11-28T03:03:58.654Z,100578.69
2022-11-28T03:05:00.434Z,100584.34
2022-11-28T03:05:52.011Z,100583.47
2022-11-28T03:06:23.885Z,100579.25
2022-11-28T03:07:17.732Z,100577.97
2022-11-28T03:08:15.829Z,100581.22
2022-11-28T03:08:47.692Z,100585.59
2022-11-28T03:09:38.525Z,100574.03
2022-11-28T03:10:31.594Z,100577.59
2022-11-28T03:11:41.169Z,100579.41
2022-11-28T03:12:39.311Z,100583.56
2022-11-28T03:13:30.483Z,100582.16
2022-11-28T03:14:08.192Z,100579.84
2022-11-28T03:14:53.405Z,100581.16
2022-11-28T03:15:37.458Z,100582.78
2022-11-28T03:16:18.326Z,100589.59
2022-11-28T03:17:18.542Z,100575.19
2022-11-28T03:17:53.678Z,100578.25
2022-11-28T03:18:39.563Z,100583.47
2022-11-28T03:19:28.356Z,100582.44
2022-11-28T03:20:15.377Z,100580.41
2022-11-28T03:21:11.386Z,100580.88
2022-11-28T03:21:49.414Z,100586.06
2022-11-28T03:22:38.641Z,100576.16
2022-11-28T03:23:26.745Z,100580.84
2022-11-28T03:24:03.196Z,100578.28
2022-11-28T03:24:42.239Z,100584.12
2022-11-28T03:25:34.166Z,100585.78
2022-11-28T03:26:29.250Z,100577.50
2022-11-28T03:27:17.747Z,100579.97
2022-11-28T03:27:59.559Z,100573.41
2022-11-28T03:29:05.873Z,100580.19
2022-11-28T03:29:45.076Z,100569.66
2022-11-28T03:30:19.808Z,100575.22
2022-11-28T03:31:03.581Z,100576.94
2022-11-28T03:31:42.540Z,100574.66
2022-11-28T03:32:22.373Z,100567.84
2022-11-28T03:32:57.081Z,100577.22
2022-11-28T03:33:34.261Z,100568.66
2022-11-28T03:34:12.132Z,100569.47
2022-11-28T03:34:47.682Z,100569.31
2022-11-28T03:35:23.460Z,100568.22
2022-11-28T03:36:03.752Z,100574.34
2022-11-28T03:36:47.393Z,100560.75
2022-11-28T03:37:33.777Z,100572.59
2022-11-28T03:38:15.339Z,100565.63
2022-11-28T03:38:56.620Z,100558.34
2022-11-28T03:39:35.763Z,100568.59
2022-11-28T03:40:14.250Z,100568.63
2022-11-28T03:40:51.260Z,100561.16
2022-11-28T03:41:49.403Z,100562.81
2022-11-28T03:42:24.681Z,100560.00
2022-11-28T03:43:08.480Z,100563.25
2022-11-28T03:43:46.064Z,100559.22
2022-11-28T03:44:31.114Z,100558.59
2022-11-28T03:45:10.927Z,100558.75
2022-11-28T03:45:47.759Z,100562.47
2022-11-28T03:46:23.701Z,100552.44
2022-11-28T03:46:58.113Z,100561.81
2022-11-28T03:47:36.366Z,100557.09
2022-11-28T03:48:20.821Z,100550.13
2022-11-28T03:48:56.868Z,100545.31
2022-11-28T03:49:38.093Z,100546.59
2022-11-28T03:50:19.717Z,100550.66
2022-11-28T03:51:03.002Z,100544.59
2022-11-28T03:51:41.977Z,100542.88
2022-11-28T03:52:24.090Z,100539.53
2022-11-28T03:53:08.401Z,100535.31
2022-11-28T03:53:48.935Z,100533.00
2022-11-28T03:54:40.502Z,100535.66
2022-11-28T03:55:42.113Z,100535.44
2022-11-28T03:56:40.084Z,100538.69
2022-11-28T03:57:35.201Z,100530.94
2022-11-28T03:58:16.755Z,100535.66
2022-11-28T03:58:58.904Z,100532.88
2022-11-28T03:59:37.500Z,100528.69
2022-11-28T04:00:13.000Z,100522.34
2022-11-28T04:01:33.927Z,100528.66
2022-11-28T04:02:44.501Z,100533.53
2022-11-28T04:03:41.516Z,100522.81
2022-11-28T04:04:34.436Z,100532.06
2022-11-28T04:05:44.639Z,100525.44
2022-11-28T04:06:37.856Z,100527.34
2022-11-28T04:07:24.700Z,100518.47
2022-11-28T04:07:56.534Z,100519.75
2022-11-28T04:08:34.111Z,100516.06
2022-11-28T04:09:14.641Z,100521.16
2022-11-28T04:10:19.220Z,100516.28
2022-11-28T04:10:51.011Z,100513.91
2022-11-28T04:11:29.706Z,100520.47
2022-11-28T04:12:09.822Z,100518.03
2022-11-28T04:13:00.303Z,100515.37
2022-11-28T04:13:43.089Z,100517.63
2022-11-28T04:14:30.495Z,100519.56
2022-11-28T04:15:09.966Z,100512.97
2022-11-28T04:15:47.961Z,100512.97
2022-11-28T04:16:34.205Z,100517.19
2022-11-28T04:17:19.667Z,100519.91
2022-11-28T04:18:02.546Z,100512.66
2022-11-28T04:18:58.048Z,100511.75
2022-11-28T04:19:36.994Z,100507.53
2022-11-28T04:20:18.973Z,100506.13
2022-11-28T04:21:22.615Z,100504.78
2022-11-28T04:22:11.314Z,100513.47
2022-11-28T04:22:51.149Z,100509.16
2022-11-28T04:23:24.633Z,100507.19
2022-11-28T04:24:02.460Z,100501.72
2022-11-28T04:24:39.292Z,100504.59
2022-11-28T04:25:15.208Z,100503.69
2022-11-28T04:25:55.403Z,100509.53
2022-11-28T04:26:41.555Z,100500.72
2022-11-28T04:27:18.098Z,100503.12
2022-11-28T04:27:56.514Z,100500.75
2022-11-28T04:28:32.350Z,100504.03
2022-11-28T04:29:10.242Z,100506.81
2022-11-28T04:29:49.835Z,100497.87
2022-11-28T04:30:22.055Z,100496.75
2022-11-28T04:30:56.485Z,100497.00
2022-11-28T04:31:29.098Z,100499.75
2022-11-28T04:32:03.699Z,100494.34
2022-11-28T04:32:39.769Z,100497.78
2022-11-28T04:33:14.393Z,100500.03
2022-11-28T04:33:52.057Z,100497.78
2022-11-28T04:34:26.318Z,100503.31
2022-11-28T04:35:05.337Z,100507.06
2022-11-28T04:35:42.247Z,100501.37
2022-11-28T04:36:17.584Z,100507.84
2022-11-28T04:36:50.751Z,100497.16
2022-11-28T04:37:25.218Z,100503.00
2022-11-28T04:37:58.879Z,100498.63
2022-11-28T04:38:32.750Z,100499.75
2022-11-28T04:39:11.630Z,100498.50
2022-11-28T04:39:48.061Z,100499.19
2022-11-28T04:40:22.256Z,100500.94
2022-11-28T04:41:00.924Z,100503.78
2022-11-28T04:41:38.480Z,100501.56
2022-11-28T04:42:55.585Z,100500.19
2022-11-28T04:43:34.202Z,100496.66
2022-11-28T04:44:14.950Z,100501.63
2022-11-28T04:44:57.622Z,100503.56
2022-11-28T04:45:49.917Z,100501.63
2022-11-28T04:46:27.932Z,100501.66
2022-11-28T04:46:59.919Z,100496.66
2022-11-28T04:47:31.811Z,100496.47
2022-11-28T04:48:04.284Z,100499.03
2022-11-28T04:48:36.291Z,100502.13
2022-11-28T04:49:08.813Z,100500.72
2022-11-28T04:49:40.748Z,100505.22
2022-11-28T04:50:13.602Z,100496.81
2022-11-28T04:51:06.675Z,100498.47
2022-11-28T04:51:58.416Z,100497.81
2022-11-28T04:53:00.554Z,100490.28
2022-11-28T04:53:44.278Z,100498.03
2022-11-28T04:54:42.972Z,100494.22
2022-11-28T04:55:30.444Z,100496.16
2022-11-28T04:56:26.713Z,100497.34
2022-11-28T04:57:12.966Z,100496.44
2022-11-28T04:57:57.349Z,100494.84
2022-11-28T04:58:40.574Z,100492.44
2022-11-28T04:59:15.528Z,100499.84
2022-11-28T04:59:49.103Z,100502.31
2022-11-28T05:00:22.543Z,100495.47
2022-11-28T05:00:55.884Z,100500.94
2022-11-28T05:01:32.121Z,100494.84
2022-11-28T05:02:05.886Z,100502.91
2022-11-28T05:02:39.407Z,100501.28
2022-11-28T05:03:12.030Z,100503.09
2022-11-28T05:03:44.136Z,100512.06
2022-11-28T05:04:17.300Z,100506.13
2022-11-28T05:04:49.477Z,100506.28
2022-11-28T05:05:24.608Z,100506.94
2022-11-28T05:05:56.755Z,100504.72
2022-11-28T05:06:32.899Z,100506.41
2022-11-28T05:07:07.701Z,100502.94
2022-11-28T05:07:39.877Z,100506.50
2022-11-28T05:08:11.977Z,100506.88
2022-11-28T05:08:44.007Z,100507.38
2022-11-28T05:09:15.907Z,100502.72
2022-11-28T05:09:48.199Z,100506.56
2022-11-28T05:10:20.736Z,100503.53
2022-11-28T05:10:52.658Z,100505.97
2022-11-28T05:11:24.721Z,100507.47
2022-11-28T05:11:56.611Z,100506.81
2022-11-28T05:12:28.426Z,100509.41
2022-11-28T05:13:00.245Z,100501.94
2022-11-28T05:13:32.089Z,100497.25
2022-11-28T05:14:04.015Z,100509.03
2022-11-28T05:14:35.918Z,100503.19
2022-11-28T05:15:08.291Z,100502.50
2022-11-28T05:15:40.460Z,100500.91
2022-11-28T05:16:13.075Z,100495.72
2022-11-28T05:16:45.218Z,100496.09
2022-11-28T05:17:17.583Z,100502.56
2022-11-28T05:17:49.709Z,100504.16
2022-11-28T05:18:21.553Z,100499.97
2022-11-28T05:18:53.538Z,100497.44
2022-11-28T05:19:25.383Z,100500.44
2022-11-28T05:19:57.300Z,100496.03
2022-11-28T05:20:29.457Z,100500.28
2022-11-28T05:21:01.738Z,100494.28
2022-11-28T05:21:33.596Z,100507.91
2022-11-28T05:22:05.452Z,100505.09
2022-11-28T05:22:37.329Z,100504.75
2022-11-28T05:23:09.172Z,100505.72
2022-11-28T05:23:43.844Z,100507.00
2022-11-28T05:24:15.675Z,100506.62
2022-11-28T05:24:47.679Z,100506.06
2022-11-28T05:25:19.615Z,100507.41
2022-11-28T05:25:51.539Z,100509.19
2022-11-28T05:26:24.157Z,100508.09
2022-11-28T05:26:56.044Z,100503.59
2022-11-28T05:27:27.894Z,100506.41
2022-11-28T05:27:59.811Z,100509.56
2022-11-28T05:28:31.686Z,100507.00
2022-11-28T05:29:04.346Z,100509.16
2022-11-28T05:29:36.250Z,100506.69
2022-11-28T05:30:10.096Z,100513.59
2022-11-28T05:30:42.130Z,100507.13
2022-11-28T05:31:14.988Z,100514.19
2022-11-28T05:31:47.233Z,100514.16
2022-11-28T05:32:19.388Z,100510.84
2022-11-28T05:32:51.258Z,100502.72
2022-11-28T05:33:23.126Z,100508.63
2022-11-28T05:33:56.123Z,100506.13
2022-11-28T05:34:28.071Z,100506.50
2022-11-28T05:34:59.918Z,100509.22
2022-11-28T05:35:31.788Z,100504.41
2022-11-28T05:36:11.265Z,100504.75
2022-11-28T05:36:44.700Z,100506.41
2022-11-28T05:37:16.889Z,100511.84
2022-11-28T05:37:48.771Z,100504.75
2022-11-28T05:38:20.805Z,100504.53
2022-11-28T05:38:52.637Z,100508.50
2022-11-28T05:39:24.527Z,100505.13
2022-11-28T05:39:56.430Z,100507.03
2022-11-28T05:40:28.322Z,100501.87
2022-11-28T05:41:01.417Z,100505.25
2022-11-28T05:41:33.868Z,100509.16
2022-11-28T05:42:06.037Z,100513.22
2022-11-28T05:42:38.170Z,100508.09
2022-11-28T05:43:13.367Z,100511.94
2022-11-28T05:43:45.183Z,100509.88
2022-11-28T05:44:17.006Z,100507.31
2022-11-28T05:44:49.681Z,100513.62
2022-11-28T05:45:21.544Z,100513.38
2022-11-28T05:45:54.408Z,100512.09
2022-11-28T05:46:27.505Z,100516.34
2022-11-28T05:46:59.331Z,100522.31
2022-11-28T05:47:32.835Z,100512.31
2022-11-28T05:48:05.360Z,100514.25
2022-11-28T05:48:37.332Z,100513.47
2022-11-28T05:49:09.244Z,100511.03
2022-11-28T05:49:41.498Z,100506.69
2022-11-28T05:50:13.626Z,100509.53
2022-11-28T05:50:45.492Z,100512.81
2022-11-28T05:51:17.939Z,100512.13
2022-11-28T05:51:49.892Z,100505.81
2022-11-28T05:52:21.706Z,100516.94
2022-11-28T05:52:53.539Z,100520.66
2022-11-28T05:53:26.032Z,100513.25
2022-11-28T05:53:57.889Z,100513.06
2022-11-28T05:54:30.648Z,100519.19
2022-11-28T05:55:02.560Z,100524.03
2022-11-28T05:55:34.936Z,100514.16
2022-11-28T05:56:12.230Z,100524.87
2022-11-28T05:56:44.042Z,100523.84
2022-11-28T05:57:17.151Z,100528.03
2022-11-28T05:57:49.024Z,100519.97
2022-11-28T05:58:20.878Z,100523.75
2022-11-28T05:58:54.243Z,100520.81
2022-11-28T05:59:26.446Z,100522.38
2022-11-28T05:59:58.374Z,100524.03
2022-11-28T06:00:31.155Z,100519.25
2022-11-28T06:01:17.650Z,100521.41
2022-11-28T06:01:49.582Z,100517.03
2022-11-28T06:02:21.536Z,100518.81
2022-11-28T06:02:58.390Z,100520.91
2022-11-28T06:03:32.919Z,100516.31
2022-11-28T06:04:04.778Z,100529.34
2022-11-28T06:04:36.797Z,100524.34
2022-11-28T06:05:34.784Z,100527.09
2022-11-28T06:06:00.655Z,100528.72
2022-11-28T06:06:34.859Z,100529.03
2022-11-28T06:07:06.730Z,100529.88
2022-11-28T06:07:38.633Z,100534.28
2022-11-28T06:08:14.255Z,100533.69
2022-11-28T06:08:47.935Z,100529.81
2022-11-28T06:09:24.507Z,100535.59
2022-11-28T06:09:57.715Z,100532.31
2022-11-28T06:10:29.692Z,100535.94
2022-11-28T06:11:01.566Z,100535.78
2022-11-28T06:11:34.446Z,100534.50
2022-11-28T06:12:06.975Z,100535.94
2022-11-28T06:12:38.832Z,100533.97
2022-11-28T06:13:10.668Z,100540.47
2022-11-28T06:13:43.794Z,100534.53
2022-11-28T06:14:15.650Z,100541.50
2022-11-28T06:14:47.506Z,100533.06
2022-11-28T06:15:19.403Z,100537.63
2022-11-28T06:15:51.647Z,100540.81
2022-11-28T06:16:26.632Z,100530.44
2022-11-28T06:16:59.014Z,100534.97
2022-11-28T06:17:31.456Z,100534.03
2022-11-28T06:18:03.314Z,100526.25
2022-11-28T06:18:35.215Z,100527.56
2022-11-28T06:19:07.125Z,100530.34
2022-11-28T06:19:39.363Z,100527.12
2022-11-28T06:20:11.344Z,100527.00
2022-11-28T06:20:43.207Z,100527.12
2022-11-28T06:21:16.096Z,100530.78
2022-11-28T06:21:50.202Z,100522.25
2022-11-28T06:22:22.472Z,100526.31
2022-11-28T06:22:54.363Z,100525.88
2022-11-28T06:23:26.338Z,100529.97
2022-11-28T06:23:59.710Z,100526.97
2022-11-28T06:24:31.546Z,100528.56
2022-11-28T06:25:03.712Z,100528.28
2022-11-28T06:25:35.573Z,100528.16
2022-11-28T06:26:09.904Z,100521.69
2022-11-28T06:26:41.770Z,100526.25
2022-11-28T06:27:13.583Z,100521.72
2022-11-28T06:27:45.820Z,100521.72
2022-11-28T06:28:17.650Z,100519.47
2022-11-28T06:28:49.921Z,100519.63
2022-11-28T06:29:22.080Z,100518.94
2022-11-28T06:29:53.861Z,100517.81
2022-11-28T06:30:25.801Z,100516.62
2022-11-28T06:30:57.680Z,100517.09
2022-11-28T06:31:30.351Z,100520.00
2022-11-28T06:32:02.407Z,100516.13
2022-11-28T06:32:34.316Z,100516.09
2022-11-28T06:33:06.459Z,100518.00
2022-11-28T06:33:38.559Z,100516.72
2022-11-28T06:34:12.954Z,100514.72
2022-11-28T06:34:44.792Z,100516.84
2022-11-28T06:35:16.752Z,100511.84
2022-11-28T06:35:48.641Z,100516.06
2022-11-28T06:36:21.710Z,100521.59
2022-11-28T06:36:53.546Z,100515.66
2022-11-28T06:37:25.428Z,100519.44
2022-11-28T06:37:57.301Z,100515.41
2022-11-28T06:38:29.837Z,100520.28
2022-11-28T06:39:01.765Z,100521.06
2022-11-28T06:39:33.660Z,100524.13
2022-11-28T06:40:06.146Z,100519.09
2022-11-28T06:40:39.775Z,100515.81
2022-11-28T06:41:14.584Z,100525.25
2022-11-28T06:41:46.475Z,100516.31
2022-11-28T06:42:18.383Z,100518.41
2022-11-28T06:42:51.145Z,100521.47
2022-11-28T06:43:23.052Z,100525.84
2022-11-28T06:43:56.919Z,100519.69
2022-11-28T06:44:28.819Z,100526.44
2022-11-28T06:45:00.648Z,100524.19
2022-11-28T06:45:35.621Z,100524.84
2022-11-28T06:46:16.884Z,100527.12
2022-11-28T06:46:49.014Z,100526.09
2022-11-28T06:47:20.898Z,100524.16
2022-11-28T06:47:52.726Z,100530.00
2022-11-28T06:48:24.881Z,100529.16
2022-11-28T06:48:57.066Z,100528.03
2022-11-28T06:49:28.971Z,100527.56
2022-11-28T06:50:01.096Z,100532.28
2022-11-28T06:50:33.039Z,100527.22
2022-11-28T06:51:06.606Z,100533.88
2022-11-28T06:51:39.248Z,100535.66
2022-11-28T06:52:11.103Z,100537.38
2022-11-28T06:52:42.998Z,100531.87
2022-11-28T06:53:14.842Z,100527.78
2022-11-28T06:53:46.918Z,100539.63
2022-11-28T06:54:19.024Z,100538.19
2022-11-28T06:54:51.085Z,100534.12
2022-11-28T06:55:23.099Z,100533.16
2022-11-28T06:55:55.035Z,100532.37
2022-11-28T06:56:27.169Z,100541.94
2022-11-28T06:56:59.018Z,100535.91
2022-11-28T06:57:32.775Z,100540.25
2022-11-28T06:58:04.797Z,100535.50
2022-11-28T06:58:37.274Z,100542.09
2022-11-28T06:59:12.156Z,100546.00
2022-11-28T06:59:44.508Z,100548.72
2022-11-28T07:00:17.417Z,100546.66